Meteo Giornale » Osservazioni meteo Stati Uniti (USA) » Dallas Redbird
ore: 03:53 - Osservazioni Meteo Dallas Redbird
Lat. 32° 40' N Lon. 96° 51' W Alt. 201 metri s.l.m.
28 °C
Sereno
Temp. 24 Ore
27 °C
38 °C
Sud/Sud-Ovest
13 Km/h
Dew point 20 °C
Umidità 61 %
Visibilità 10 Km
Il sole sorge alle ore 07:02
Il sole tramonta alle ore 19:52
| Data e Ora | Cielo e Fenomeni | T °C | DP °C | Um. % | Pres. hPa | Vis. km | Vento km/h | |
|---|---|---|---|---|---|---|---|---|
| Oggi h: 03:53 | Sereno | 28 | 20 | 61 | 1016 | 10 | S/SO 13 | |
| Oggi h: 02:53 | Sereno | 28 | 19 | 58 | 1016 | 10 | S 11.1 | |
| Oggi h: 01:53 | Sereno | 29 | 19 | 54 | 1016 | 10 | S/SE 13 | |
| Oggi h: 00:53 | Sereno | 30 | 18 | 48 | 1015 | 10 | S/SE 11.1 | |
| Ieri h: 23:53 | Sereno | 31 | 17 | 43 | 1015 | 10 | S/SE 11.1 | |
| Ieri h: 22:53 | Sereno | 30 | 16 | 42 | 1014 | 10 | S/SE 7.4 | |
| Ieri h: 21:53 | Sereno | 31 | 16 | 40 | 1014 | 10 | S/SE 9.3 | |
| Ieri h: 20:53 | Sereno | 33 | 16 | 36 | 1014 | 10 | SE 9.3 | |
| Ieri h: 19:53 | Sereno | 34 | 14 | 30 | 1013 | 10 | E/SE 11.1 | |
| Ieri h: 18:53 | Sereno | 36 | 15 | 28 | 1013 | 10 | SE 18.5 | |
| Ieri h: 17:53 | Poco Nuvoloso | 37 | 16 | 28 | 1013 | 10 | SE 14.8 | |
| Ieri h: 16:53 | Poco Nuvoloso | 38 | 16 | 27 | 1014 | 10 | S 11.1 | |
| Ieri h: 15:53 | Sereno | 37 | 15 | 27 | 1014 | 10 | E/SE 13 | |
| Ieri h: 14:53 | Molto Nuvoloso | 37 | 17 | 30 | 1015 | 10 | SE 22.2 | |
| Ieri h: 13:53 | Sereno | 37 | 17 | 30 | 1016 | 10 | S/SE 18.5 | |
| Ieri h: 12:53 | Sereno | 36 | 18 | 34 | 1017 | 10 | S/SE 14.8 | |
| Ieri h: 11:53 | Sereno | 34 | 19 | 41 | 1017 | 10 | N 7.4 | |
| Ieri h: 10:53 | Sereno | 33 | 19 | 43 | 1017 | 10 | S/SE 14.8 | |
| Ieri h: 09:53 | Sereno | 31 | 21 | 55 | 1017 | 10 | N 0 | |
| Ieri h: 08:53 | Sereno | 28 | 22 | 69 | 1017 | 10 | SO 9.3 | |
| Ieri h: 07:53 | Sereno | 27 | 21 | 69 | 1016 | 10 | S 13 | |
| Ieri h: 06:53 | Sereno | 27 | 21 | 69 | 1015 | 10 | S/SO 13 | |
| Ieri h: 05:53 | Sereno | 27 | 21 | 69 | 1015 | 10 | S/SO 14.8 | |
| Ieri h: 04:53 | Sereno | 28 | 21 | 65 | 1015 | 10 | S/SO 13 | |



